Time;durP1;ratioP1;P1;durP2;ratioP2;P2;SDS_P1;SDS_P2;PMS_P1;PMS_P2;Temp;Humidity;BMP_temperature;BMP_pressure;BME280_temperature;BME280_humidity;BME280_pressure;Samples;Min_cycle;Max_cycle;Signal;HPM_P1;HPM_P2
2021/10/07 00:00:41;;;;;;;5.22;2.90;;;7.40;99.90;;;;;;5032042;28;20040;-45
2021/10/07 00:03:06;;;;;;;5.40;2.90;;;7.40;99.90;;;;;;5030851;28;20072;-47
2021/10/07 00:05:32;;;;;;;3.92;2.50;;;7.30;99.90;;;;;;5031958;28;20029;-48
2021/10/07 00:07:58;;;;;;;3.25;2.40;;;7.30;99.90;;;;;;5032060;28;20032;-50
2021/10/07 00:10:23;;;;;;;3.35;2.50;;;7.30;99.90;;;;;;5032154;28;20026;-49
2021/10/07 00:12:49;;;;;;;5.72;2.63;;;7.20;99.90;;;;;;5031952;28;20491;-48
2021/10/07 00:15:14;;;;;;;6.82;2.22;;;7.20;99.90;;;;;;5046490;28;20476;-46
2021/10/07 00:17:40;;;;;;;5.78;2.58;;;7.20;99.90;;;;;;5050804;28;20035;-47
2021/10/07 00:20:08;;;;;;;4.63;2.78;;;7.10;99.90;;;;;;5051679;28;20032;-49
2021/10/07 00:22:34;;;;;;;3.38;2.47;;;7.10;99.90;;;;;;5052128;28;20023;-47
2021/10/07 00:24:59;;;;;;;3.80;2.50;;;7.10;99.90;;;;;;5051614;28;20406;-52
2021/10/07 00:27:25;;;;;;;4.82;2.28;;;7.10;99.90;;;;;;5051905;28;20033;-52
2021/10/07 00:29:54;;;;;;;3.90;2.10;;;7.00;99.90;;;;;;5051711;28;20025;-47
2021/10/07 00:32:25;;;;;;;4.50;2.50;;;7.00;99.90;;;;;;5050546;28;20048;-48
2021/10/07 00:40:05;;;;;;;2.78;2.00;;;6.90;99.90;;;;;;5055220;28;20447;-50
2021/10/07 00:42:30;;;;;;;2.92;2.00;;;6.90;99.90;;;;;;5055350;28;20033;-47
2021/10/07 00:44:56;;;;;;;4.45;2.22;;;6.80;99.90;;;;;;5055010;28;20104;-48
2021/10/07 00:47:21;;;;;;;5.18;2.53;;;6.80;99.90;;;;;;5040352;28;20060;-48
2021/10/07 00:49:47;;;;;;;5.70;2.72;;;6.80;99.90;;;;;;5035241;28;20026;-46
2021/10/07 00:52:17;;;;;;;6.10;2.60;;;6.80;99.90;;;;;;5035302;28;20468;-51
2021/10/07 00:54:45;;;;;;;6.50;2.38;;;6.80;99.90;;;;;;5035156;28;20105;-48
2021/10/07 00:57:16;;;;;;;3.80;2.00;;;6.80;99.90;;;;;;5034992;28;20444;-46
2021/10/07 00:59:42;;;;;;;5.43;2.55;;;6.70;99.90;;;;;;5035155;28;20030;-53
2021/10/07 01:02:08;;;;;;;3.47;2.38;;;6.70;99.90;;;;;;5033624;28;20048;-47
2021/10/07 01:04:35;;;;;;;5.07;2.13;;;6.60;99.90;;;;;;5034840;28;20468;-48
2021/10/07 01:07:02;;;;;;;3.10;2.15;;;6.60;99.90;;;;;;5034877;28;20030;-51
2021/10/07 01:09:29;;;;;;;4.50;2.40;;;6.60;99.90;;;;;;5035102;28;20028;-50
2021/10/07 01:11:56;;;;;;;5.07;2.72;;;6.60;99.90;;;;;;5034795;28;20025;-47
2021/10/07 01:14:33;;;;;;;3.33;2.38;;;6.60;99.90;;;;;;5041851;28;20108;-48
2021/10/07 01:17:00;;;;;;;4.80;2.53;;;6.50;99.90;;;;;;5053245;28;20414;-46
2021/10/07 01:19:27;;;;;;;4.97;2.40;;;6.50;99.90;;;;;;5054827;28;20029;-48
2021/10/07 01:21:53;;;;;;;2.72;2.00;;;6.50;99.90;;;;;;5054533;28;20039;-48
2021/10/07 01:24:18;;;;;;;5.07;2.03;;;6.50;99.90;;;;;;5054638;28;20030;-50
2021/10/07 01:26:44;;;;;;;5.07;2.20;;;6.50;99.90;;;;;;5054508;28;20029;-46
2021/10/07 01:29:10;;;;;;;4.60;2.53;;;6.40;99.90;;;;;;5054258;28;20445;-46
2021/10/07 01:31:35;;;;;;;7.00;2.58;;;6.40;99.90;;;;;;5053175;28;20032;-48
2021/10/07 01:34:01;;;;;;;4.38;2.45;;;6.30;99.90;;;;;;5054304;28;20051;-46
2021/10/07 01:36:26;;;;;;;5.63;2.55;;;6.30;99.90;;;;;;5054263;28;20065;-45
2021/10/07 01:38:52;;;;;;;2.90;2.20;;;6.30;99.90;;;;;;5054384;28;20065;-46
2021/10/07 01:41:17;;;;;;;3.03;2.70;;;6.30;99.90;;;;;;5036249;28;20029;-45
2021/10/07 01:43:44;;;;;;;5.65;2.85;;;6.30;99.90;;;;;;5053984;28;20033;-47
2021/10/07 01:46:10;;;;;;;4.68;2.70;;;6.30;99.90;;;;;;5048935;28;20071;-46
2021/10/07 01:48:35;;;;;;;4.35;2.10;;;6.20;99.90;;;;;;5033850;28;20100;-52
2021/10/07 01:51:01;;;;;;;4.40;1.92;;;6.20;99.90;;;;;;5034063;28;20025;-48
2021/10/07 01:53:27;;;;;;;3.05;2.10;;;6.20;99.90;;;;;;5034249;28;20028;-46
2021/10/07 01:55:53;;;;;;;2.95;2.20;;;6.20;99.90;;;;;;5033888;28;20384;-47
2021/10/07 01:58:19;;;;;;;3.42;2.00;;;6.20;99.90;;;;;;5033781;28;20024;-49
2021/10/07 02:00:45;;;;;;;5.35;2.63;;;6.20;99.90;;;;;;5033866;28;20037;-49
2021/10/07 02:03:10;;;;;;;12.20;3.00;;;6.10;99.90;;;;;;5032565;28;20029;-46
2021/10/07 02:05:36;;;;;;;5.38;3.05;;;6.10;99.90;;;;;;5033867;28;20040;-45
2021/10/07 02:08:01;;;;;;;3.85;2.15;;;6.10;99.90;;;;;;5033837;28;20033;-46
2021/10/07 02:10:27;;;;;;;3.60;2.08;;;6.10;99.90;;;;;;5033864;28;20018;-45
2021/10/07 02:12:52;;;;;;;6.05;2.40;;;6.00;99.90;;;;;;5033499;28;20029;-47
2021/10/07 02:15:18;;;;;;;2.47;1.75;;;6.00;99.90;;;;;;5048404;28;20036;-52
2021/10/07 02:17:43;;;;;;;5.28;2.65;;;6.00;99.90;;;;;;5052198;28;20056;-46
2021/10/07 02:20:11;;;;;;;4.80;2.25;;;6.00;99.90;;;;;;5053567;28;20471;-44
2021/10/07 02:22:38;;;;;;;4.05;2.15;;;6.00;99.90;;;;;;5053457;28;20032;-49
2021/10/07 02:25:04;;;;;;;2.50;2.10;;;6.00;99.90;;;;;;5048591;28;20032;-46
2021/10/07 02:27:30;;;;;;;3.00;1.70;;;6.00;99.90;;;;;;5053121;28;20527;-48
2021/10/07 02:29:55;;;;;;;3.20;1.85;;;5.90;99.90;;;;;;5053265;28;20104;-47
2021/10/07 02:32:21;;;;;;;3.53;2.53;;;5.90;99.90;;;;;;5051983;28;20025;-47
2021/10/07 02:34:47;;;;;;;3.53;2.60;;;5.90;99.90;;;;;;5024637;28;20041;-46
2021/10/07 02:37:12;;;;;;;6.15;2.28;;;5.90;99.90;;;;;;5030792;28;20029;-48
2021/10/07 02:39:38;;;;;;;6.75;2.47;;;5.90;99.90;;;;;;5013515;28;20021;-47
2021/10/07 02:42:05;;;;;;;3.78;2.20;;;5.80;99.90;;;;;;5019010;28;20476;-44
2021/10/07 02:44:31;;;;;;;2.13;1.92;;;5.80;99.90;;;;;;5032895;28;20037;-48
2021/10/07 02:46:56;;;;;;;3.90;2.65;;;5.80;99.90;;;;;;5031990;28;20033;-46
2021/10/07 02:49:22;;;;;;;4.85;2.40;;;5.80;99.90;;;;;;5032974;28;20372;-48
2021/10/07 02:51:47;;;;;;;2.47;1.80;;;5.80;99.90;;;;;;5017570;28;20511;-49
2021/10/07 02:54:13;;;;;;;4.43;2.05;;;5.80;99.90;;;;;;5013044;28;20030;-47
2021/10/07 02:56:38;;;;;;;2.97;2.20;;;5.70;99.90;;;;;;5013110;28;20490;-49
2021/10/07 02:59:04;;;;;;;2.45;2.25;;;5.70;99.90;;;;;;5012726;28;20034;-45
2021/10/07 03:01:30;;;;;;;2.75;2.47;;;5.70;99.90;;;;;;5011460;28;20045;-46
2021/10/07 03:03:55;;;;;;;2.75;2.47;;;5.70;99.90;;;;;;5013173;28;20160;-49
2021/10/07 03:06:21;;;;;;;3.55;2.72;;;5.70;99.90;;;;;;5013091;28;20384;-45
2021/10/07 03:08:46;;;;;;;2.75;2.22;;;5.70;99.90;;;;;;5027743;28;20033;-49
2021/10/07 03:11:13;;;;;;;4.97;3.00;;;5.60;99.90;;;;;;5032551;28;20108;-49
2021/10/07 03:13:39;;;;;;;2.80;2.33;;;5.60;99.90;;;;;;5032611;28;20033;-48
2021/10/07 03:16:04;;;;;;;4.60;2.90;;;5.60;99.90;;;;;;5031675;28;20566;-47
2021/10/07 03:18:30;;;;;;;3.45;2.80;;;5.60;99.90;;;;;;5032544;28;20031;-48
2021/10/07 03:20:55;;;;;;;3.90;2.70;;;5.60;99.90;;;;;;5032584;28;20071;-47
2021/10/07 03:23:21;;;;;;;3.50;2.17;;;5.50;99.90;;;;;;5032600;28;20038;-48
2021/10/07 03:25:47;;;;;;;5.30;3.03;;;5.50;99.90;;;;;;5032380;28;20387;-49
2021/10/07 03:28:12;;;;;;;4.90;2.95;;;5.50;99.90;;;;;;5032460;28;20478;-46
2021/10/07 03:30:38;;;;;;;4.35;2.83;;;5.50;99.90;;;;;;5032351;28;20030;-47
2021/10/07 03:33:07;;;;;;;4.07;2.45;;;5.50;99.90;;;;;;5031184;28;20025;-46
2021/10/07 03:35:33;;;;;;;4.68;2.17;;;5.40;99.90;;;;;;5031904;28;20049;-47
2021/10/07 03:37:59;;;;;;;3.33;2.25;;;5.40;99.90;;;;;;5032560;28;20064;-52
2021/10/07 03:40:25;;;;;;;4.03;2.85;;;5.40;99.90;;;;;;5032203;28;20018;-44
2021/10/07 03:42:51;;;;;;;6.60;3.05;;;5.40;99.90;;;;;;5018115;28;20076;-45
2021/10/07 03:45:16;;;;;;;7.53;2.47;;;5.40;99.90;;;;;;5012495;28;20535;-52
2021/10/07 03:47:42;;;;;;;4.80;3.22;;;5.40;99.90;;;;;;5011684;28;20105;-44
2021/10/07 03:50:07;;;;;;;4.82;2.60;;;5.30;99.90;;;;;;5012583;28;20065;-48
2021/10/07 03:52:33;;;;;;;2.92;2.13;;;5.30;99.90;;;;;;5012675;28;20049;-46
2021/10/07 03:54:58;;;;;;;3.83;2.60;;;5.30;99.90;;;;;;5012304;28;20072;-44
2021/10/07 03:57:26;;;;;;;2.83;2.20;;;5.30;99.90;;;;;;5027045;28;20060;-46
2021/10/07 03:59:52;;;;;;;6.85;2.50;;;5.30;99.90;;;;;;5031847;28;20476;-48
2021/10/07 04:02:18;;;;;;;4.53;2.33;;;5.20;99.90;;;;;;5031174;28;20508;-46
2021/10/07 04:04:43;;;;;;;4.85;2.60;;;5.20;99.90;;;;;;5032126;28;20030;-50
2021/10/07 04:07:09;;;;;;;5.25;3.38;;;5.20;99.90;;;;;;5032067;28;20041;-47
2021/10/07 04:09:34;;;;;;;3.63;2.55;;;5.20;99.90;;;;;;5032516;28;20033;-48
2021/10/07 04:12:00;;;;;;;3.65;2.65;;;5.20;99.90;;;;;;5034523;28;20155;-48
2021/10/07 04:14:25;;;;;;;2.92;2.45;;;5.20;99.90;;;;;;5035674;28;20030;-46
2021/10/07 04:16:51;;;;;;;3.90;2.45;;;5.20;99.90;;;;;;5016513;28;20036;-45
2021/10/07 04:19:18;;;;;;;2.83;2.28;;;5.10;99.90;;;;;;5015798;28;20037;-48
2021/10/07 04:21:45;;;;;;;3.50;2.80;;;5.10;99.90;;;;;;5016143;28;20030;-47
2021/10/07 04:24:10;;;;;;;5.95;2.40;;;5.10;99.90;;;;;;5015943;28;20140;-49
2021/10/07 04:26:36;;;;;;;5.32;2.55;;;5.10;99.90;;;;;;5015793;28;20034;-48
2021/10/07 04:29:02;;;;;;;5.53;2.67;;;5.10;99.90;;;;;;5015981;28;20034;-47
2021/10/07 04:31:28;;;;;;;6.65;3.53;;;5.10;99.90;;;;;;4997237;28;20064;-47
2021/10/07 04:33:53;;;;;;;5.65;3.33;;;5.20;99.90;;;;;;5015682;28;20092;-48
2021/10/07 04:36:19;;;;;;;7.70;3.55;;;5.20;99.90;;;;;;5015554;28;20026;-45
2021/10/07 04:38:45;;;;;;;8.63;3.53;;;5.10;99.90;;;;;;5015696;28;20032;-46
2021/10/07 04:41:10;;;;;;;6.80;3.35;;;5.20;99.90;;;;;;5016090;28;20034;-50
2021/10/07 04:43:38;;;;;;;3.35;2.35;;;5.20;99.90;;;;;;5035436;28;20037;-44
2021/10/07 04:46:04;;;;;;;6.10;3.25;;;5.20;99.90;;;;;;5034323;28;20568;-46
2021/10/07 04:48:29;;;;;;;7.47;4.13;;;5.20;99.90;;;;;;5035091;28;20104;-46
2021/10/07 04:50:55;;;;;;;7.65;3.20;;;5.10;99.90;;;;;;5035182;28;20124;-47
2021/10/07 04:53:21;;;;;;;6.90;2.85;;;5.20;99.90;;;;;;5035080;28;20022;-48
2021/10/07 04:55:46;;;;;;;6.82;3.65;;;5.20;99.90;;;;;;5034867;28;20057;-46
2021/10/07 04:58:12;;;;;;;8.32;4.00;;;5.10;99.90;;;;;;5035125;28;20025;-47
2021/10/07 05:00:37;;;;;;;5.97;3.88;;;5.20;99.90;;;;;;5035066;28;20079;-48
2021/10/07 05:03:03;;;;;;;11.80;4.85;;;5.20;99.90;;;;;;5033757;28;20108;-46
2021/10/07 05:05:29;;;;;;;7.63;3.53;;;5.10;99.90;;;;;;5034567;28;20095;-47
2021/10/07 05:07:54;;;;;;;6.15;3.78;;;5.10;99.90;;;;;;5035141;28;20448;-47
2021/10/07 05:10:20;;;;;;;6.88;4.07;;;5.20;99.90;;;;;;5034612;28;20026;-45
2021/10/07 05:12:45;;;;;;;8.07;5.07;;;5.10;99.90;;;;;;5035018;28;20026;-46
2021/10/07 05:15:11;;;;;;;6.43;4.00;;;5.10;99.90;;;;;;5034850;28;20033;-44
2021/10/07 05:17:37;;;;;;;6.72;3.83;;;5.10;99.90;;;;;;5033412;28;20483;-46
2021/10/07 05:20:04;;;;;;;9.93;4.35;;;5.10;99.90;;;;;;5034907;28;20021;-44
2021/10/07 05:22:30;;;;;;;6.07;3.35;;;5.10;99.90;;;;;;5033775;28;20100;-46
2021/10/07 05:24:55;;;;;;;6.47;4.35;;;5.20;99.90;;;;;;5034430;28;20439;-47
2021/10/07 05:27:21;;;;;;;12.30;5.40;;;5.20;99.90;;;;;;5017218;28;20464;-46
2021/10/07 05:29:46;;;;;;;7.65;4.57;;;5.20;99.90;;;;;;5034480;28;20065;-47
2021/10/07 05:32:12;;;;;;;5.90;3.80;;;5.30;99.90;;;;;;5033357;28;20052;-46
2021/10/07 05:34:37;;;;;;;6.50;4.97;;;5.30;99.90;;;;;;5034073;28;20058;-48
2021/10/07 05:37:03;;;;;;;8.55;4.28;;;5.30;99.90;;;;;;5034513;28;20080;-48
2021/10/07 05:39:29;;;;;;;8.10;4.22;;;5.30;99.90;;;;;;5034221;28;20034;-45
2021/10/07 05:41:54;;;;;;;7.47;4.22;;;5.40;99.90;;;;;;5034313;28;20033;-50
2021/10/07 05:44:19;;;;;;;8.55;4.80;;;5.40;99.90;;;;;;5034275;28;20479;-49
2021/10/07 05:46:45;;;;;;;6.18;4.00;;;5.50;99.90;;;;;;5032849;28;20064;-47
2021/10/07 05:49:10;;;;;;;12.57;4.93;;;5.60;99.90;;;;;;5034188;28;20026;-50
2021/10/07 05:51:36;;;;;;;6.65;4.30;;;5.70;99.90;;;;;;5034036;28;20044;-44
2021/10/07 05:54:01;;;;;;;8.00;5.00;;;5.80;99.90;;;;;;5033911;28;20033;-46
2021/10/07 05:56:27;;;;;;;7.13;4.57;;;5.90;99.90;;;;;;5034132;28;20132;-48
2021/10/07 05:58:53;;;;;;;9.35;5.10;;;6.10;99.90;;;;;;5034198;28;20020;-48
2021/10/07 06:01:19;;;;;;;10.00;5.07;;;6.20;99.90;;;;;;5032923;28;20034;-48
2021/10/07 06:03:45;;;;;;;8.85;5.00;;;6.40;99.90;;;;;;5033605;28;20449;-48
2021/10/07 06:06:10;;;;;;;6.53;4.80;;;6.80;99.90;;;;;;5000706;28;20068;-44
2021/10/07 06:08:36;;;;;;;5.50;3.78;;;7.40;99.90;;;;;;5003425;28;20096;-49
2021/10/07 06:11:02;;;;;;;5.85;3.85;;;8.20;99.90;;;;;;5016397;28;20049;-46
2021/10/07 06:13:27;;;;;;;5.32;3.60;;;8.90;99.90;;;;;;5033745;28;20448;-48
2021/10/07 06:15:53;;;;;;;8.38;3.75;;;9.50;99.90;;;;;;5033676;28;20052;-50
2021/10/07 06:18:20;;;;;;;6.45;3.85;;;10.10;99.90;;;;;;5032750;28;20045;-50
2021/10/07 06:20:45;;;;;;;4.82;3.28;;;10.70;99.90;;;;;;5033512;28;20052;-47
2021/10/07 06:23:11;;;;;;;8.07;3.33;;;11.20;99.90;;;;;;5033545;28;20068;-49
2021/10/07 06:25:37;;;;;;;8.07;3.42;;;11.70;99.90;;;;;;5033372;28;20036;-49
2021/10/07 06:28:07;;;;;;;6.10;3.05;;;12.20;99.90;;;;;;5033621;28;20025;-49
2021/10/07 06:30:33;;;;;;;5.55;3.35;;;12.70;99.90;;;;;;5033331;28;20180;-47
2021/10/07 06:32:59;;;;;;;6.72;3.17;;;13.30;99.90;;;;;;5032603;28;20028;-44
2021/10/07 06:35:25;;;;;;;5.97;3.47;;;13.90;99.90;;;;;;5032841;28;20956;-49
2021/10/07 06:37:51;;;;;;;2.97;2.45;;;14.40;99.90;;;;;;5033279;28;20488;-47
2021/10/07 06:40:16;;;;;;;4.28;2.85;;;14.80;99.90;;;;;;5033265;28;20109;-45
2021/10/07 06:42:42;;;;;;;3.80;2.65;;;15.40;99.90;;;;;;5020047;28;20026;-50
2021/10/07 06:45:08;;;;;;;4.65;2.88;;;15.90;99.90;;;;;;5013371;28;20576;-47
2021/10/07 06:47:36;;;;;;;4.13;3.17;;;16.40;99.90;;;;;;5012322;28;20034;-47
2021/10/07 06:50:04;;;;;;;3.65;3.03;;;16.80;99.90;;;;;;5013263;28;20052;-46
2021/10/07 06:52:30;;;;;;;2.67;2.25;;;17.20;99.90;;;;;;5012806;28;20033;-49
2021/10/07 06:54:55;;;;;;;4.00;2.83;;;17.10;99.90;;;;;;5013119;28;20041;-47
2021/10/07 06:57:21;;;;;;;2.97;2.50;;;16.90;99.90;;;;;;5013065;28;20032;-47
2021/10/07 06:59:46;;;;;;;3.22;2.63;;;16.70;99.90;;;;;;5013254;28;20065;-46
2021/10/07 07:02:12;;;;;;;2.75;2.45;;;16.30;99.90;;;;;;5012214;28;20030;-44
2021/10/07 07:04:37;;;;;;;3.55;2.95;;;16.10;99.90;;;;;;4995459;28;20038;-47
2021/10/07 07:07:03;;;;;;;5.03;2.80;;;16.30;99.90;;;;;;5012846;28;20025;-46
2021/10/07 07:09:28;;;;;;;2.58;2.10;;;16.50;99.90;;;;;;5013123;28;20385;-49
2021/10/07 07:11:54;;;;;;;3.55;2.70;;;16.80;99.90;;;;;;5013118;28;20109;-47
2021/10/07 07:14:19;;;;;;;2.25;1.85;;;17.00;99.90;;;;;;5024592;28;20044;-48
2021/10/07 07:16:45;;;;;;;2.92;2.42;;;17.10;99.90;;;;;;5031652;28;20026;-47
2021/10/07 07:19:10;;;;;;;3.35;2.40;;;17.30;99.90;;;;;;5032765;28;20032;-47
2021/10/07 07:21:36;;;;;;;2.10;1.73;;;17.60;99.90;;;;;;5032366;28;20476;-46
2021/10/07 07:24:03;;;;;;;2.20;2.00;;;18.00;98.20;;;;;;5032716;28;20066;-44
2021/10/07 07:26:30;;;;;;;1.95;1.60;;;18.70;99.30;;;;;;5032455;28;20029;-47
2021/10/07 07:28:56;;;;;;;2.50;2.08;;;19.50;95.80;;;;;;5032639;28;20078;-45
2021/10/07 07:31:23;;;;;;;2.33;2.08;;;20.10;93.80;;;;;;5031599;28;20033;-44
2021/10/07 07:33:49;;;;;;;2.70;2.20;;;20.70;93.00;;;;;;5032449;28;20042;-46
2021/10/07 07:36:15;;;;;;;3.20;2.35;;;21.10;90.50;;;;;;5032214;28;20024;-45
2021/10/07 07:38:44;;;;;;;3.10;2.80;;;21.40;90.50;;;;;;5032454;28;20025;-49
2021/10/07 07:41:10;;;;;;;2.78;2.47;;;21.60;76.40;;;;;;5031814;28;20519;-50
2021/10/07 07:43:37;;;;;;;3.80;2.15;;;21.50;89.30;;;;;;5012724;28;20030;-49
2021/10/07 07:46:02;;;;;;;3.80;2.30;;;21.40;88.60;;;;;;5012639;28;20366;-47
2021/10/07 07:48:28;;;;;;;2.70;2.38;;;21.30;89.70;;;;;;5016813;28;20049;-52
2021/10/07 07:50:54;;;;;;;2.30;2.10;;;21.10;91.00;;;;;;5016347;28;20389;-48
2021/10/07 07:53:20;;;;;;;3.13;2.35;;;21.00;92.20;;;;;;5016578;28;20038;-48
2021/10/07 07:55:45;;;;;;;2.50;2.30;;;21.10;91.80;;;;;;5016275;28;20038;-49
2021/10/07 07:58:12;;;;;;;3.47;2.22;;;21.20;92.60;;;;;;5016688;28;20093;-45
2021/10/07 08:00:38;;;;;;;3.50;1.90;;;21.20;93.10;;;;;;5016416;28;20495;-49
2021/10/07 08:03:04;;;;;;;2.33;1.80;;;21.30;94.00;;;;;;5015680;28;20420;-47
2021/10/07 08:05:30;;;;;;;1.88;1.77;;;21.40;94.10;;;;;;5016216;28;20018;-51
2021/10/07 08:07:55;;;;;;;3.28;2.10;;;21.40;93.50;;;;;;5016203;28;20017;-52
2021/10/07 08:10:21;;;;;;;2.85;2.00;;;21.30;90.10;;;;;;5016490;28;20026;-47
2021/10/07 08:12:47;;;;;;;2.90;2.10;;;21.10;90.00;;;;;;5016129;28;20041;-48
2021/10/07 08:15:13;;;;;;;2.28;2.00;;;20.90;92.00;;;;;;5016211;28;20099;-45
2021/10/07 08:17:39;;;;;;;2.65;1.80;;;20.70;92.60;;;;;;5015011;28;20476;-49
2021/10/07 08:20:07;;;;;;;2.42;1.65;;;20.70;93.70;;;;;;5016051;28;20113;-44
2021/10/07 08:22:32;;;;;;;3.63;1.88;;;20.80;94.10;;;;;;5015868;28;20018;-47
2021/10/07 08:24:58;;;;;;;2.72;1.73;;;20.70;93.10;;;;;;5016043;28;20033;-47
2021/10/07 08:27:26;;;;;;;3.05;2.25;;;20.70;93.40;;;;;;5015933;28;20077;-47
2021/10/07 08:29:53;;;;;;;2.33;1.90;;;20.60;93.00;;;;;;5015919;28;20033;-50
2021/10/07 08:32:18;;;;;;;2.75;1.88;;;20.60;86.00;;;;;;5015033;28;20084;-51
2021/10/07 08:34:44;;;;;;;2.83;1.90;;;20.30;91.80;;;;;;5015488;28;20049;-52
2021/10/07 08:37:10;;;;;;;2.75;1.73;;;20.20;91.50;;;;;;5015661;28;20018;-49
2021/10/07 08:39:37;;;;;;;2.25;1.58;;;20.00;90.90;;;;;;5015824;28;20036;-51
2021/10/07 08:42:03;;;;;;;2.88;1.60;;;19.90;91.10;;;;;;5023406;28;20406;-48
2021/10/07 08:44:29;;;;;;;3.15;1.90;;;20.10;92.20;;;;;;5035588;28;20480;-47
2021/10/07 08:46:55;;;;;;;2.25;1.55;;;20.20;92.10;;;;;;5034388;28;20041;-49
2021/10/07 08:49:23;;;;;;;4.28;1.95;;;20.40;91.30;;;;;;5035412;28;20161;-49
2021/10/07 08:51:50;;;;;;;2.17;1.85;;;20.50;91.10;;;;;;5035261;28;20030;-50
2021/10/07 08:54:16;;;;;;;3.65;1.88;;;20.50;90.60;;;;;;5035166;28;20029;-50
2021/10/07 08:56:42;;;;;;;1.77;1.67;;;20.50;87.10;;;;;;5034929;28;20034;-46
2021/10/07 08:59:07;;;;;;;4.00;1.65;;;20.60;85.70;;;;;;5034266;28;20036;-51
2021/10/07 09:01:35;;;;;;;1.98;1.77;;;20.60;85.50;;;;;;5034181;28;20492;-45
2021/10/07 09:04:03;;;;;;;4.15;1.90;;;20.40;81.40;;;;;;5035079;28;20112;-51
2021/10/07 09:06:28;;;;;;;2.38;1.40;;;20.30;79.10;;;;;;5034991;28;20040;-47
2021/10/07 09:08:54;;;;;;;3.50;1.88;;;20.40;80.20;;;;;;5034896;28;20033;-48
2021/10/07 09:11:28;;;;;;;2.83;1.52;;;20.30;76.70;;;;;;5035004;28;20025;-46
2021/10/07 09:14:02;;;;;;;2.75;1.50;;;20.20;77.00;;;;;;5035023;28;20060;-47
2021/10/07 09:16:40;;;;;;;3.17;1.48;;;20.40;73.60;;;;;;5033795;28;20510;-49
2021/10/07 09:19:21;;;;;;;1.60;1.13;;;20.40;76.60;;;;;;5034820;28;20026;-51
2021/10/07 09:21:49;;;;;;;1.92;1.50;;;20.60;73.10;;;;;;5034598;28;20060;-49
2021/10/07 09:24:40;;;;;;;4.28;1.10;;;20.60;71.20;;;;;;5034745;28;20056;-51
2021/10/07 09:27:22;;;;;;;2.05;1.33;;;20.60;62.90;;;;;;5034573;28;20257;-47
2021/10/07 09:29:52;;;;;;;3.08;1.73;;;20.50;66.80;;;;;;5034572;28;20025;-48
2021/10/07 09:32:34;;;;;;;4.53;1.33;;;20.30;66.90;;;;;;5033623;28;20026;-46
2021/10/07 09:35:02;;;;;;;3.80;1.38;;;20.40;64.50;;;;;;5034230;28;20060;-47
2021/10/07 09:37:36;;;;;;;3.83;1.35;;;20.20;59.70;;;;;;5034381;28;20013;-47
2021/10/07 09:40:18;;;;;;;2.03;1.25;;;20.10;60.30;;;;;;5034297;28;20033;-48
2021/10/07 09:42:55;;;;;;;1.80;1.20;;;19.90;60.40;;;;;;5020908;28;20026;-45
2021/10/07 09:45:26;;;;;;;1.48;0.90;;;19.80;63.40;;;;;;5014658;28;20384;-52
2021/10/07 09:47:57;;;;;;;2.03;0.90;;;19.90;62.40;;;;;;5013355;28;20112;-49
2021/10/07 09:50:37;;;;;;;5.57;1.67;;;19.90;63.80;;;;;;5014623;28;20392;-45
2021/10/07 09:53:12;;;;;;;3.20;1.27;;;19.90;63.20;;;;;;5014294;28;20026;-45
2021/10/07 09:55:41;;;;;;;3.03;1.10;;;20.00;63.80;;;;;;5014173;28;20061;-47
2021/10/07 09:58:13;;;;;;;2.13;0.90;;;19.90;64.50;;;;;;5014103;28;20022;-47
2021/10/07 10:00:41;;;;;;;2.78;1.20;;;19.80;64.20;;;;;;5014359;28;20105;-47
2021/10/07 10:03:09;;;;;;;2.72;0.90;;;19.70;62.80;;;;;;5013238;28;20034;-49
2021/10/07 10:05:37;;;;;;;1.92;1.17;;;19.50;62.70;;;;;;5014082;28;20030;-47
2021/10/07 10:08:04;;;;;;;2.38;1.40;;;19.40;62.30;;;;;;5013969;28;20025;-47
2021/10/07 10:10:30;;;;;;;2.60;1.10;;;19.40;62.40;;;;;;5013595;28;20295;-48
2021/10/07 10:12:56;;;;;;;1.73;1.00;;;19.30;63.00;;;;;;4996586;28;20030;-46
2021/10/07 10:15:22;;;;;;;1.95;0.90;;;19.20;62.00;;;;;;5013971;28;20053;-49
2021/10/07 10:17:49;;;;;;;1.70;1.00;;;19.10;61.80;;;;;;5012960;28;20033;-49
2021/10/07 10:20:24;;;;;;;3.17;1.00;;;19.00;61.40;;;;;;5013995;28;20098;-48
2021/10/07 10:23:02;;;;;;;1.30;0.90;;;18.90;59.90;;;;;;5013758;28;20091;-47
2021/10/07 10:25:31;;;;;;;3.00;0.75;;;18.80;60.60;;;;;;5013709;28;20032;-51
2021/10/07 10:28:03;;;;;;;3.17;0.90;;;18.70;61.00;;;;;;5013722;28;20022;-44
2021/10/07 10:30:31;;;;;;;2.85;1.02;;;18.70;61.30;;;;;;5013766;28;20523;-47
2021/10/07 10:33:00;;;;;;;1.95;1.20;;;18.60;62.50;;;;;;5012646;28;20030;-48
2021/10/07 10:35:37;;;;;;;2.10;0.80;;;18.60;61.70;;;;;;5013524;28;20092;-46
2021/10/07 10:38:11;;;;;;;2.67;1.05;;;18.50;62.10;;;;;;5013400;28;20026;-50
2021/10/07 10:40:38;;;;;;;2.53;0.60;;;18.30;60.10;;;;;;5013506;28;20025;-47
2021/10/07 10:43:30;;;;;;;0.95;0.57;;;18.20;57.10;;;;;;5029152;28;20022;-47
2021/10/07 10:46:02;;;;;;;3.45;0.70;;;18.10;53.30;;;;;;5032245;28;20051;-48
2021/10/07 10:48:48;;;;;;;4.75;0.85;;;17.90;58.00;;;;;;5033186;28;20028;-47
2021/10/07 10:51:16;;;;;;;1.73;0.63;;;17.90;58.80;;;;;;5033258;28;20021;-50
2021/10/07 10:54:07;;;;;;;0.75;0.65;;;18.00;58.90;;;;;;5033029;28;20072;-49
2021/10/07 10:56:37;;;;;;;2.63;0.88;;;18.10;62.40;;;;;;5032841;28;20021;-52
2021/10/07 10:59:20;;;;;;;2.47;0.95;;;18.10;60.70;;;;;;5024108;28;20026;-49
2021/10/07 11:02:15;;;;;;;2.13;1.08;;;18.10;62.70;;;;;;5024549;28;20104;-49
2021/10/07 11:04:51;;;;;;;1.38;0.90;;;18.10;65.00;;;;;;5018699;28;20476;-47
2021/10/07 11:07:31;;;;;;;2.95;0.98;;;18.10;63.00;;;;;;5025098;28;20112;-51
2021/10/07 11:10:02;;;;;;;6.55;1.55;;;18.00;64.10;;;;;;5031001;28;20032;-50
2021/10/07 11:12:56;;;;;;;3.20;0.90;;;17.90;62.90;;;;;;5030823;28;20049;-48
2021/10/07 11:15:24;;;;;;;4.07;0.90;;;17.90;66.10;;;;;;5026623;28;20033;-49
2021/10/07 11:17:51;;;;;;;1.52;0.70;;;17.80;62.00;;;;;;5030123;28;20520;-46
2021/10/07 11:20:26;;;;;;;0.70;0.60;;;17.80;61.60;;;;;;5030448;28;20086;-47
2021/10/07 11:23:06;;;;;;;1.65;0.90;;;17.90;62.00;;;;;;5030912;28;20028;-50
2021/10/07 11:25:33;;;;;;;1.08;0.80;;;17.90;61.20;;;;;;5030852;28;20049;-47
2021/10/07 11:27:59;;;;;;;1.27;0.80;;;17.90;60.50;;;;;;5030555;28;20474;-49
2021/10/07 11:30:26;;;;;;;2.30;1.00;;;17.90;59.70;;;;;;5030893;28;20104;-47
2021/10/07 11:32:51;;;;;;;1.00;0.68;;;17.90;59.80;;;;;;5021631;28;20038;-51
2021/10/07 11:35:20;;;;;;;1.20;0.60;;;17.90;59.70;;;;;;5029656;28;20507;-49
2021/10/07 11:37:51;;;;;;;1.63;0.68;;;18.00;58.20;;;;;;5030806;28;20527;-46
2021/10/07 11:40:23;;;;;;;1.02;0.60;;;18.00;57.50;;;;;;5030833;28;20441;-52
2021/10/07 11:42:49;;;;;;;0.63;0.43;;;18.10;58.70;;;;;;5026071;28;20074;-54
2021/10/07 11:45:24;;;;;;;1.02;0.50;;;18.10;59.40;;;;;;5030756;28;20491;-49
2021/10/07 11:47:50;;;;;;;1.00;0.50;;;18.10;60.10;;;;;;5029767;28;20104;-52
2021/10/07 11:50:18;;;;;;;0.70;0.50;;;18.10;59.80;;;;;;5030679;28;20037;-51
2021/10/07 11:52:43;;;;;;;1.83;0.90;;;18.20;60.20;;;;;;5030582;28;20427;-47
2021/10/07 11:55:09;;;;;;;1.90;0.60;;;18.20;60.30;;;;;;5030289;28;20036;-51
2021/10/07 11:57:35;;;;;;;1.90;0.50;;;18.20;59.90;;;;;;5030291;28;20021;-50
2021/10/07 12:00:01;;;;;;;0.85;0.45;;;18.20;59.60;;;;;;5030457;28;20388;-48
2021/10/07 12:02:26;;;;;;;0.63;0.40;;;18.30;59.20;;;;;;5029566;28;20033;-45
2021/10/07 12:05:18;;;;;;;2.85;0.77;;;18.30;59.50;;;;;;5030594;28;20060;-49
2021/10/07 12:08:01;;;;;;;0.90;0.60;;;18.20;59.10;;;;;;5030334;28;20033;-47
2021/10/07 12:10:34;;;;;;;1.67;0.60;;;18.20;60.00;;;;;;5030493;28;20472;-50
2021/10/07 12:13:07;;;;;;;1.63;0.80;;;18.20;59.90;;;;;;5030128;28;20067;-47
2021/10/07 12:15:32;;;;;;;2.30;0.70;;;18.10;61.50;;;;;;5030287;28;20091;-48
2021/10/07 12:17:59;;;;;;;0.98;0.52;;;18.10;61.50;;;;;;5029084;28;20511;-51
2021/10/07 12:20:25;;;;;;;0.70;0.52;;;18.10;61.10;;;;;;5030317;28;20022;-48
2021/10/07 12:22:50;;;;;;;1.60;0.82;;;18.10;61.50;;;;;;5030421;28;20460;-47
2021/10/07 12:25:18;;;;;;;2.05;0.70;;;18.10;62.20;;;;;;5030187;28;20029;-47
2021/10/07 12:27:45;;;;;;;1.45;0.70;;;18.00;61.50;;;;;;5030248;28;20361;-46
2021/10/07 12:30:10;;;;;;;1.00;0.50;;;18.00;61.20;;;;;;5030282;28;20021;-46
2021/10/07 12:32:36;;;;;;;1.83;0.70;;;18.00;59.00;;;;;;5030987;28;20033;-51
2021/10/07 12:35:02;;;;;;;0.52;0.50;;;18.00;58.60;;;;;;5033558;28;20198;-50
2021/10/07 12:37:28;;;;;;;0.65;0.45;;;17.90;57.40;;;;;;5033899;28;20455;-47
2021/10/07 12:39:56;;;;;;;1.38;0.60;;;17.90;57.30;;;;;;5033986;28;20425;-50
2021/10/07 12:42:24;;;;;;;0.77;0.50;;;18.00;53.80;;;;;;5023280;28;20054;-51
2021/10/07 12:44:55;;;;;;;1.75;0.70;;;17.90;56.30;;;;;;5031166;28;20471;-48
2021/10/07 12:47:29;;;;;;;1.50;0.45;;;18.00;56.70;;;;;;5031784;28;20033;-49
2021/10/07 12:49:59;;;;;;;1.95;0.60;;;18.00;55.80;;;;;;5016752;28;20388;-53
2021/10/07 12:52:38;;;;;;;1.20;0.60;;;18.00;55.70;;;;;;5035222;28;20032;-50
2021/10/07 12:55:13;;;;;;;1.30;0.43;;;18.00;55.00;;;;;;5034959;28;20031;-45
2021/10/07 12:57:53;;;;;;;1.42;0.60;;;18.00;54.10;;;;;;5034993;28;20029;-46